createdAt,value
2022-09-12T07:14:50.315Z,17.68
2022-09-12T07:16:53.007Z,17.68
2022-09-12T07:18:57.804Z,17.25
2022-09-12T07:21:02.215Z,17.56
2022-09-12T07:23:04.820Z,17.52
2022-09-12T07:25:07.390Z,17.77
2022-09-12T07:27:10.064Z,17.91
2022-09-12T07:31:39.026Z,17.82
2022-09-12T07:33:42.277Z,18.32
2022-09-12T07:35:44.799Z,18.78
2022-09-12T07:37:47.358Z,18.93
2022-09-12T07:39:49.968Z,18.97
2022-09-12T07:41:52.491Z,18.76
2022-09-12T07:43:59.321Z,18.60
2022-09-12T07:46:01.871Z,18.66
2022-09-12T07:48:04.590Z,18.74
2022-09-12T07:50:07.442Z,18.81
2022-09-12T07:52:09.774Z,18.64
2022-09-12T07:54:12.395Z,18.67
2022-09-12T08:15:24.966Z,18.96
2022-09-12T08:17:28.516Z,18.96
2022-09-12T08:19:31.814Z,18.89
2022-09-12T08:21:34.356Z,18.99
2022-09-12T08:23:36.857Z,19.06
2022-09-12T08:25:39.115Z,19.01
2022-09-12T08:27:43.004Z,18.98
2022-09-12T08:29:45.605Z,19.32
2022-09-12T08:31:47.863Z,19.13
2022-09-12T08:33:50.593Z,19.22
2022-09-12T08:35:53.072Z,19.08
2022-09-12T08:37:55.355Z,19.06
2022-09-12T08:39:58.082Z,19.47
2022-09-12T08:42:06.164Z,19.43
2022-09-12T08:44:30.172Z,19.41
2022-09-12T08:46:40.990Z,19.53
2022-09-12T08:48:46.645Z,19.64
2022-09-12T08:50:49.990Z,19.74
2022-09-12T08:53:00.182Z,19.86
2022-09-12T08:55:04.561Z,19.73
2022-09-12T08:57:10.169Z,19.85
2022-09-12T08:59:13.744Z,19.60
2022-09-12T09:01:41.986Z,19.90
2022-09-12T09:04:18.832Z,19.71
2022-09-12T09:06:24.634Z,19.85
2022-09-12T09:08:34.271Z,20.05
2022-09-12T09:10:48.882Z,20.37
2022-09-12T09:13:04.136Z,20.39
2022-09-12T09:15:28.241Z,20.17
2022-09-12T09:17:44.651Z,20.07
2022-09-12T09:19:57.335Z,20.10
2022-09-12T09:22:10.006Z,20.20
2022-09-12T09:24:16.906Z,20.52
2022-09-12T09:26:46.099Z,20.85
2022-09-12T09:28:53.847Z,21.09
2022-09-12T09:30:56.303Z,20.50
2022-09-12T09:33:02.041Z,20.81
2022-09-12T09:35:16.559Z,20.65
2022-09-12T09:37:21.250Z,21.02
2022-09-12T09:39:52.929Z,21.04
2022-09-12T09:42:11.413Z,21.16
2022-09-12T09:44:13.886Z,21.05
2022-09-12T09:46:16.543Z,21.10
2022-09-12T09:48:29.847Z,20.79
2022-09-12T09:50:32.526Z,20.68
2022-09-12T09:52:36.098Z,20.77
2022-09-12T09:54:49.526Z,21.07
2022-09-12T09:56:52.041Z,21.22
2022-09-12T09:58:54.905Z,21.71
2022-09-12T10:01:02.390Z,21.69
2022-09-12T10:03:04.900Z,21.22
2022-09-12T10:05:07.338Z,21.61
2022-09-12T10:07:19.822Z,21.86
2022-09-12T10:09:25.891Z,21.82
2022-09-12T10:11:28.761Z,22.07
2022-09-12T10:13:36.167Z,22.19
2022-09-12T10:15:38.831Z,22.53
2022-09-12T10:17:46.876Z,22.41
2022-09-12T10:20:10.432Z,22.07
2022-09-12T10:22:21.472Z,22.03
2022-09-12T10:24:43.706Z,22.06
2022-09-12T10:26:56.992Z,21.72
2022-09-12T10:29:06.653Z,21.59
2022-09-12T10:31:14.075Z,21.43
2022-09-12T10:33:16.425Z,21.43
2022-09-12T10:35:24.569Z,21.49
2022-09-12T10:37:35.049Z,21.71
2022-09-12T10:39:38.939Z,21.73
2022-09-12T10:41:41.842Z,21.67
2022-09-12T10:43:44.772Z,21.90
2022-09-12T10:45:47.592Z,22.14
2022-09-12T10:47:51.075Z,22.17
2022-09-12T10:49:53.334Z,22.32
2022-09-12T10:51:59.503Z,22.67
2022-09-12T10:54:05.526Z,22.25
2022-09-12T10:56:19.435Z,22.46
2022-09-12T10:58:30.430Z,22.39
2022-09-12T11:00:40.599Z,22.29
2022-09-12T11:02:57.525Z,22.19
2022-09-12T11:05:36.611Z,22.22
2022-09-12T11:08:01.595Z,22.04
2022-09-12T11:10:18.303Z,22.28
2022-09-12T11:12:35.698Z,22.23
2022-09-12T11:14:38.153Z,22.17
2022-09-12T11:16:46.377Z,22.15
2022-09-12T11:19:12.085Z,22.10
2022-09-12T11:21:30.494Z,22.12
2022-09-12T11:24:04.300Z,22.02
2022-09-12T11:26:30.863Z,21.74
2022-09-12T11:29:18.267Z,21.68
2022-09-12T11:32:14.689Z,21.44
2022-09-12T11:34:35.413Z,21.47
2022-09-12T11:36:37.766Z,21.67
2022-09-12T11:38:57.125Z,22.18
2022-09-12T11:41:07.332Z,24.41
2022-09-12T11:43:23.814Z,26.81
2022-09-12T11:45:32.661Z,28.32
2022-09-12T11:47:37.506Z,27.01
2022-09-12T11:49:50.309Z,24.98
2022-09-12T11:52:00.001Z,24.17
2022-09-12T11:54:12.190Z,23.37
2022-09-12T11:56:18.760Z,22.60
2022-09-12T11:58:25.546Z,22.46
2022-09-12T12:00:33.737Z,21.86
2022-09-12T12:02:48.330Z,21.96
2022-09-12T12:05:03.509Z,21.77
2022-09-12T12:07:10.641Z,21.79
2022-09-12T12:09:13.565Z,21.40
2022-09-12T12:11:27.766Z,21.71
2022-09-12T12:13:31.292Z,21.75
2022-09-12T12:15:37.537Z,21.66
2022-09-12T12:17:39.797Z,21.73
2022-09-12T12:19:42.746Z,21.79
2022-09-12T12:21:50.624Z,21.82
2022-09-12T12:24:08.229Z,22.55
2022-09-12T12:26:48.553Z,24.88
2022-09-12T12:28:51.222Z,23.79
2022-09-12T12:30:53.751Z,23.99
2022-09-12T12:33:13.077Z,23.33
2022-09-12T12:35:35.605Z,22.63
2022-09-12T12:37:43.560Z,22.98
2022-09-12T12:39:49.372Z,22.95
2022-09-12T12:41:51.941Z,23.04
2022-09-12T12:43:56.412Z,23.59
2022-09-12T12:46:05.487Z,24.45
2022-09-12T12:48:16.588Z,24.26
2022-09-12T12:50:21.702Z,23.24
2022-09-12T12:52:28.928Z,23.17
2022-09-12T12:54:51.261Z,23.19
2022-09-12T12:57:24.634Z,23.38
2022-09-12T12:59:27.146Z,25.75
2022-09-12T13:01:30.786Z,27.17
2022-09-12T13:03:34.472Z,26.53
2022-09-12T13:05:39.868Z,25.52
2022-09-12T13:07:44.113Z,24.58
2022-09-12T13:09:52.640Z,24.23
2022-09-12T13:12:11.124Z,23.87
2022-09-12T13:14:37.957Z,23.47
2022-09-12T13:16:54.627Z,23.48
2022-09-12T13:19:01.700Z,23.45
2022-09-12T13:21:18.622Z,23.67
2022-09-12T13:23:27.748Z,23.59
2022-09-12T13:25:33.062Z,23.51
2022-09-12T13:27:35.549Z,23.65
2022-09-12T13:29:38.570Z,23.54
2022-09-12T13:31:45.270Z,23.58
2022-09-12T13:34:02.730Z,23.20
2022-09-12T13:36:35.303Z,23.16
2022-09-12T13:38:47.191Z,22.71
2022-09-12T13:41:07.651Z,23.23
2022-09-12T13:43:17.602Z,23.05
2022-09-12T13:45:22.894Z,22.67
2022-09-12T13:47:37.464Z,22.80
2022-09-12T13:49:41.555Z,22.71
2022-09-12T13:51:43.919Z,22.32
2022-09-12T13:53:48.070Z,22.17
2022-09-12T13:55:54.116Z,21.97
2022-09-12T13:57:59.851Z,22.03
2022-09-12T14:00:07.418Z,22.30
2022-09-12T14:02:22.483Z,22.19
2022-09-12T14:04:45.022Z,22.29
2022-09-12T14:06:50.330Z,22.34
2022-09-12T14:08:55.000Z,22.37
2022-09-12T14:10:58.380Z,22.60
2022-09-12T14:13:05.576Z,22.51
2022-09-12T14:15:17.820Z,22.10
2022-09-12T14:17:25.361Z,22.28
2022-09-12T14:19:29.266Z,22.02
2022-09-12T14:21:36.902Z,22.13
2022-09-12T14:23:42.652Z,22.26
2022-09-12T14:25:47.823Z,22.32
2022-09-12T14:27:55.596Z,22.35
2022-09-12T14:30:07.534Z,22.30
2022-09-12T14:32:22.687Z,22.42
2022-09-12T14:34:25.206Z,22.53
2022-09-12T14:36:34.732Z,22.52
2022-09-12T14:38:44.270Z,22.39
2022-09-12T14:40:51.138Z,22.59
2022-09-12T14:42:56.884Z,22.55
2022-09-12T14:45:16.679Z,22.71
2022-09-12T14:47:25.769Z,22.62
2022-09-12T14:49:34.724Z,22.74
2022-09-12T14:51:40.850Z,22.47
2022-09-12T14:53:49.360Z,22.44
2022-09-12T14:56:13.338Z,22.60
2022-09-12T14:58:21.186Z,22.69
2022-09-12T15:00:23.736Z,22.31
2022-09-12T15:02:27.072Z,22.20
2022-09-12T15:04:48.067Z,22.27
2022-09-12T15:06:50.716Z,22.17
2022-09-12T15:08:55.003Z,22.34
2022-09-12T15:10:58.736Z,22.36
2022-09-12T15:13:17.285Z,22.39
2022-09-12T15:15:21.436Z,22.30
2022-09-12T15:17:23.865Z,22.23
2022-09-12T15:19:26.400Z,22.08
2022-09-12T15:21:28.809Z,22.18
2022-09-12T15:23:40.727Z,22.07
2022-09-12T15:25:43.571Z,21.99
2022-09-12T15:27:46.830Z,21.89
2022-09-12T15:29:49.192Z,22.02
2022-09-12T15:31:51.823Z,22.07
2022-09-12T15:33:55.721Z,21.97
2022-09-12T15:35:58.027Z,21.89
2022-09-12T15:38:00.565Z,21.92
2022-09-12T15:40:04.604Z,21.85
2022-09-12T15:42:07.187Z,21.84
2022-09-12T15:44:12.571Z,21.80
2022-09-12T15:46:17.132Z,21.65
2022-09-12T15:48:28.421Z,21.66
2022-09-12T15:50:31.102Z,21.68
2022-09-12T15:52:34.647Z,21.75
2022-09-12T15:54:37.099Z,21.74
2022-09-12T15:56:39.679Z,21.55
2022-09-12T15:58:57.202Z,21.57
2022-09-12T16:01:01.632Z,21.69
2022-09-12T16:03:04.866Z,21.56
2022-09-12T16:05:14.313Z,21.69
2022-09-12T16:07:16.616Z,21.48
2022-09-12T16:09:19.550Z,21.38
2022-09-12T16:11:26.290Z,21.55
2022-09-12T16:13:28.595Z,21.61
2022-09-12T16:15:31.296Z,21.69
2022-09-12T16:17:33.531Z,21.77
2022-09-12T16:19:36.629Z,21.83
2022-09-12T16:21:39.308Z,21.73
2022-09-12T16:23:45.724Z,21.21
2022-09-12T16:26:02.436Z,21.38
2022-09-12T16:28:05.895Z,21.31
2022-09-12T16:30:09.289Z,20.97
2022-09-12T16:32:11.572Z,21.03
2022-09-12T16:34:14.136Z,21.11
2022-09-12T16:36:19.656Z,21.13
2022-09-12T16:38:22.594Z,21.17
2022-09-12T16:40:25.133Z,21.13
2022-09-12T16:42:27.332Z,20.94
2022-09-12T16:44:29.653Z,20.94
2022-09-12T16:46:32.208Z,21.07
2022-09-12T16:48:34.913Z,20.84
2022-09-12T16:50:37.155Z,20.61
2022-09-12T16:52:39.715Z,20.73
2022-09-12T16:54:43.674Z,20.83
2022-09-12T16:56:46.763Z,20.78
2022-09-12T16:58:49.525Z,20.70
2022-09-12T17:01:07.947Z,20.61
2022-09-12T17:03:10.289Z,20.46
2022-09-12T17:05:13.176Z,20.67
2022-09-12T17:07:15.425Z,20.45
2022-09-12T17:09:18.735Z,20.38
2022-09-12T17:11:27.502Z,20.50
2022-09-12T17:13:52.855Z,20.38
2022-09-12T17:15:52.731Z,20.59
2022-09-12T17:17:55.301Z,20.20
2022-09-12T17:19:57.774Z,20.10
2022-09-12T17:22:00.080Z,20.14
2022-09-12T17:24:03.818Z,20.30
2022-09-12T17:26:07.598Z,20.23
2022-09-12T17:28:09.914Z,20.11
2022-09-12T17:30:13.079Z,20.24
2022-09-12T17:32:17.557Z,20.22
2022-09-12T17:34:20.189Z,20.23
2022-09-12T17:36:23.513Z,20.36
2022-09-12T17:38:26.394Z,20.29
2022-09-12T17:40:55.643Z,20.19
2022-09-12T17:42:51.777Z,20.09
2022-09-12T17:44:55.001Z,19.96
2022-09-12T17:46:57.420Z,19.97
2022-09-12T17:49:01.058Z,19.57
2022-09-12T17:51:14.556Z,19.75
2022-09-12T17:53:17.744Z,19.98
2022-09-12T17:55:21.223Z,19.87
2022-09-12T17:57:23.495Z,19.51
2022-09-12T17:59:25.992Z,19.65
2022-09-12T18:01:48.376Z,19.68
2022-09-12T18:03:55.657Z,19.68
2022-09-12T18:05:58.214Z,19.59
2022-09-12T18:08:00.811Z,19.34
2022-09-12T18:10:03.861Z,19.32
2022-09-12T18:12:07.448Z,19.43
2022-09-12T18:14:13.873Z,19.61
2022-09-12T18:16:17.201Z,19.51
2022-09-12T18:18:19.571Z,19.47
2022-09-12T18:20:22.140Z,19.57
2022-09-12T18:22:24.997Z,19.57
2022-09-12T18:24:27.712Z,19.52
2022-09-12T18:26:31.343Z,19.40
2022-09-12T18:28:36.310Z,19.23
2022-09-12T18:30:38.870Z,19.36
2022-09-12T18:32:41.901Z,19.26
2022-09-12T18:34:44.899Z,19.47
2022-09-12T18:36:49.907Z,19.46
2022-09-12T18:38:52.524Z,19.38
2022-09-12T18:41:15.273Z,19.43
2022-09-12T18:43:17.974Z,19.50
2022-09-12T18:45:20.553Z,19.44
2022-09-12T18:47:23.745Z,19.47
2022-09-12T18:49:26.368Z,19.46
2022-09-12T18:51:31.911Z,19.34
2022-09-12T18:53:35.701Z,19.42
2022-09-12T18:55:37.992Z,19.29
2022-09-12T18:57:42.451Z,19.13
2022-09-12T18:59:45.420Z,19.15
2022-09-12T19:01:48.388Z,19.05
2022-09-12T19:03:52.301Z,18.96
2022-09-12T19:05:54.905Z,18.98
2022-09-12T19:07:57.274Z,18.90
2022-09-12T19:09:59.846Z,18.95
2022-09-12T19:12:03.027Z,19.03
2022-09-12T19:14:06.542Z,19.01
2022-09-12T19:16:12.171Z,18.90
2022-09-12T19:18:15.121Z,18.83
2022-09-12T19:20:18.171Z,18.77
2022-09-12T19:22:20.757Z,18.65
2022-09-12T19:24:23.911Z,18.46
2022-09-12T19:26:27.013Z,18.53
2022-09-12T19:28:30.119Z,18.62
2022-09-12T19:30:33.068Z,18.74
2022-09-12T19:32:35.549Z,18.56
2022-09-12T19:34:38.066Z,18.40
2022-09-12T19:36:45.292Z,18.46
2022-09-12T19:38:49.004Z,18.42
2022-09-12T19:40:59.043Z,18.52
2022-09-12T19:43:02.101Z,18.59
2022-09-12T19:45:04.840Z,18.61
2022-09-12T19:47:07.285Z,18.49
2022-09-12T19:49:11.307Z,18.61
2022-09-12T19:51:14.879Z,18.22
2022-09-12T19:53:18.670Z,18.39
2022-09-12T19:55:22.298Z,18.47
2022-09-12T19:57:24.734Z,18.55
2022-09-12T19:59:26.983Z,18.52
2022-09-12T20:01:29.699Z,18.51
2022-09-12T20:03:32.326Z,18.43
2022-09-12T20:05:38.462Z,18.69
2022-09-12T20:07:43.019Z,18.68
2022-09-12T20:09:45.687Z,18.68
2022-09-12T20:11:47.946Z,18.83
2022-09-12T20:13:50.580Z,18.68
2022-09-12T20:15:53.752Z,18.61
2022-09-12T20:17:56.291Z,18.77
2022-09-12T20:19:58.558Z,18.73
2022-09-12T20:22:01.231Z,18.22
2022-09-12T20:24:10.081Z,18.14
2022-09-12T20:26:12.481Z,18.34
2022-09-12T20:28:15.346Z,18.40
2022-09-12T20:30:17.711Z,18.26
2022-09-12T20:32:20.848Z,18.23
2022-09-12T20:34:23.673Z,18.32
2022-09-12T20:36:26.585Z,18.14
2022-09-12T20:38:28.879Z,18.26
2022-09-12T20:40:31.577Z,18.16
2022-09-12T20:42:33.838Z,18.12
2022-09-12T20:44:36.060Z,18.07
2022-09-12T20:46:39.874Z,17.81
2022-09-12T20:48:42.177Z,17.77
2022-09-12T20:50:44.660Z,17.93
2022-09-12T20:52:47.765Z,17.76
2022-09-12T20:54:50.030Z,17.66
2022-09-12T20:56:52.705Z,17.78
2022-09-12T20:58:55.849Z,17.91
2022-09-12T21:00:58.520Z,17.77
2022-09-12T21:03:00.794Z,17.83
2022-09-12T21:05:03.417Z,17.83
2022-09-12T21:07:05.753Z,17.91
2022-09-12T21:09:07.989Z,17.85
2022-09-12T21:11:10.570Z,17.86
2022-09-12T21:13:13.563Z,17.61
2022-09-12T21:15:15.986Z,17.63
2022-09-12T21:17:18.564Z,17.62
2022-09-12T21:19:20.801Z,17.44
2022-09-12T21:21:23.912Z,17.56
2022-09-12T21:23:27.913Z,17.64
2022-09-12T21:25:30.346Z,17.76
2022-09-12T21:27:32.700Z,17.75
2022-09-12T21:29:35.794Z,17.78
2022-09-12T21:31:38.079Z,17.55
2022-09-12T21:33:40.732Z,17.69
2022-09-12T21:35:43.218Z,17.44
2022-09-12T21:37:45.474Z,17.36
